createdAt,value
2018-08-02T00:00:35.502Z,69.65
2018-08-02T00:01:15.930Z,69.74
2018-08-02T00:01:56.351Z,69.17
2018-08-02T00:02:36.750Z,69.17
2018-08-02T00:03:17.139Z,69.46
2018-08-02T00:03:57.525Z,69.46
2018-08-02T00:04:37.987Z,69.36
2018-08-02T00:05:18.440Z,69.46
2018-08-02T00:05:58.865Z,69.26
2018-08-02T00:06:39.288Z,69.56
2018-08-02T00:07:19.638Z,69.74
2018-08-02T00:08:00.090Z,69.84
2018-08-02T00:08:40.490Z,69.94
2018-08-02T00:09:20.837Z,69.84
2018-08-02T00:10:01.281Z,70.1
2018-08-02T00:10:41.702Z,70.1
2018-08-02T00:11:22.144Z,70.62
2018-08-02T00:12:02.401Z,70.2
2018-08-02T00:12:42.867Z,70.1
2018-08-02T00:13:23.445Z,69.81
2018-08-02T00:14:03.720Z,70.1
2018-08-02T00:14:44.137Z,70.29
2018-08-02T00:15:24.814Z,70.87
2018-08-02T00:16:05.045Z,71.26
2018-08-02T00:16:45.510Z,71.26
2018-08-02T00:17:25.802Z,70.48
2018-08-02T00:18:06.254Z,70.78
2018-08-02T00:18:46.661Z,71.26
2018-08-02T00:19:27.129Z,71.26
2018-08-02T00:20:07.448Z,71.26
2018-08-02T00:20:47.929Z,70.97
2018-08-02T00:21:28.426Z,71.26
2018-08-02T00:22:08.711Z,71.55
2018-08-02T00:22:49.244Z,71.16
2018-08-02T00:23:29.635Z,71.36
2018-08-02T00:24:10.047Z,71.26
2018-08-02T00:24:50.336Z,71.45
2018-08-02T00:25:30.818Z,71.74
2018-08-02T00:26:11.057Z,71.45
2018-08-02T00:26:51.516Z,71.26
2018-08-02T00:27:31.977Z,71.26
2018-08-02T00:28:12.363Z,71.74
2018-08-02T00:28:52.780Z,71.64
2018-08-02T00:29:33.149Z,71.74
2018-08-02T00:30:13.606Z,71.74
2018-08-02T00:30:54.042Z,71.45
2018-08-02T00:31:34.472Z,71.55
2018-08-02T00:32:14.773Z,71.45
2018-08-02T00:32:58.055Z,71.36
2018-08-02T00:33:38.436Z,70.78
2018-08-02T00:34:18.909Z,70.48
2018-08-02T00:34:59.376Z,70.29
2018-08-02T00:35:39.692Z,70.2
2018-08-02T00:36:20.076Z,70.29
2018-08-02T00:37:00.490Z,70.2
2018-08-02T00:37:40.916Z,70.36
2018-08-02T00:38:21.318Z,70.39
2018-08-02T00:39:01.753Z,70.39
2018-08-02T00:39:42.081Z,70.06
2018-08-02T00:40:22.454Z,70.26
2018-08-02T00:41:02.875Z,70.48
2018-08-02T00:41:43.348Z,70.45
2018-08-02T00:42:23.707Z,70.36
2018-08-02T00:43:04.132Z,70.45
2018-08-02T00:43:44.465Z,71.12
2018-08-02T00:44:24.983Z,71.22
2018-08-02T00:45:05.278Z,71.03
2018-08-02T00:45:45.808Z,70.94
2018-08-02T00:46:26.192Z,71.32
2018-08-02T00:47:06.563Z,71.22
2018-08-02T00:47:47.001Z,71.51
2018-08-02T00:48:27.440Z,71.32
2018-08-02T00:49:07.886Z,71.7
2018-08-02T00:49:48.301Z,71.61
2018-08-02T00:50:28.680Z,71.42
2018-08-02T00:51:09.071Z,71.61
2018-08-02T00:51:49.474Z,72
2018-08-02T00:52:29.798Z,71.7
2018-08-02T00:53:10.380Z,72.67
2018-08-02T00:53:50.635Z,72.48
2018-08-02T00:54:31.053Z,72.28
2018-08-02T00:55:11.441Z,72.28
2018-08-02T00:55:51.829Z,72.73
2018-08-02T00:56:32.241Z,72.44
2018-08-02T00:57:12.713Z,73.11
2018-08-02T00:57:53.117Z,72.96
2018-08-02T00:58:33.579Z,72.96
2018-08-02T00:59:14.075Z,72.96
2018-08-02T00:59:54.445Z,72.83
2018-08-02T01:00:34.732Z,72.92
2018-08-02T01:01:15.173Z,72.96
2018-08-02T01:01:55.605Z,72.96
2018-08-02T01:02:36.071Z,73.41
2018-08-02T01:03:16.438Z,73.5
2018-08-02T01:03:56.763Z,73.41
2018-08-02T01:04:37.202Z,73.69
2018-08-02T01:05:17.739Z,73.99
2018-08-02T01:05:58.245Z,73.89
2018-08-02T01:06:38.638Z,74.18
2018-08-02T01:07:19.109Z,74.37
2018-08-02T01:07:59.430Z,74.57
2018-08-02T01:08:39.833Z,74.66
2018-08-02T01:09:20.191Z,74.76
2018-08-02T01:10:00.565Z,74.37
2018-08-02T01:10:41.056Z,74.43
2018-08-02T01:11:21.438Z,74.27
2018-08-02T01:12:01.804Z,74.08
2018-08-02T01:12:42.315Z,74.57
2018-08-02T01:13:22.690Z,74.62
2018-08-02T01:14:03.050Z,75.05
2018-08-02T01:14:43.451Z,75.14
2018-08-02T01:15:23.892Z,75.01
2018-08-02T01:16:04.302Z,75.1
2018-08-02T01:16:44.651Z,76.17
2018-08-02T01:17:25.179Z,76.26
2018-08-02T01:18:05.739Z,76.84
2018-08-02T01:18:45.987Z,76.93
2018-08-02T01:19:26.358Z,77.13
2018-08-02T01:20:06.751Z,77.03
2018-08-02T01:20:47.202Z,77.23
2018-08-02T01:21:27.581Z,77.23
2018-08-02T01:22:08.100Z,77.03
2018-08-02T01:22:48.534Z,77.38
2018-08-02T01:23:28.974Z,77.42
2018-08-02T01:24:09.306Z,77.03
2018-08-02T01:24:49.735Z,77.13
2018-08-02T01:25:30.093Z,76.93
2018-08-02T01:26:10.616Z,76.07
2018-08-02T01:26:50.999Z,76.45
2018-08-02T01:27:31.424Z,76.07
2018-08-02T01:28:11.985Z,76.07
2018-08-02T01:28:52.323Z,75.97
2018-08-02T01:29:32.726Z,76.07
2018-08-02T01:30:13.080Z,76.07
2018-08-02T01:30:53.461Z,76.17
2018-08-02T01:31:33.901Z,76.75
2018-08-02T01:32:14.171Z,76.45
2018-08-02T01:32:54.654Z,77.23
2018-08-02T01:33:35.062Z,76.84
2018-08-02T01:34:15.416Z,77.03
2018-08-02T01:34:55.798Z,77.23
2018-08-02T01:35:36.237Z,77.51
2018-08-02T01:36:16.640Z,77.13
2018-08-02T01:36:57.158Z,77.23
2018-08-02T01:37:37.508Z,77.23
2018-08-02T01:38:17.862Z,77.23
2018-08-02T01:38:58.252Z,77.03
2018-08-02T01:39:38.697Z,77.51
2018-08-02T01:40:19.068Z,77.33
2018-08-02T01:40:59.535Z,77.33
2018-08-02T01:41:39.820Z,77.51
2018-08-02T01:42:20.213Z,77.33
2018-08-02T01:43:00.562Z,77.71
2018-08-02T01:43:40.985Z,77.13
2018-08-02T01:44:21.398Z,77.33
2018-08-02T01:45:01.871Z,77.42
2018-08-02T01:45:42.267Z,77.42
2018-08-02T01:46:22.787Z,77.51
2018-08-02T01:47:03.007Z,77.33
2018-08-02T01:47:43.443Z,76.93
2018-08-02T01:48:23.820Z,76.93
2018-08-02T01:49:04.252Z,76.36
2018-08-02T01:49:44.659Z,76.45
2018-08-02T01:50:25.123Z,76.36
2018-08-02T01:51:05.458Z,76.26
2018-08-02T01:51:45.966Z,75.88
2018-08-02T01:52:26.390Z,76.07
2018-08-02T01:53:06.715Z,76.07
2018-08-02T01:53:47.156Z,76.17
2018-08-02T01:54:27.596Z,76.45
2018-08-02T01:55:07.946Z,76.45
2018-08-02T01:55:48.287Z,76.26
2018-08-02T01:56:28.687Z,76.36
2018-08-02T01:57:09.100Z,76.45
2018-08-02T01:57:49.627Z,76.36
2018-08-02T01:58:29.960Z,76.45
2018-08-02T01:59:10.368Z,76.93
2018-08-02T01:59:50.745Z,76.36
2018-08-02T02:00:31.147Z,76.07
2018-08-02T02:01:11.569Z,76.45
2018-08-02T02:01:51.943Z,76.65
2018-08-02T02:02:32.363Z,76.26
2018-08-02T02:03:12.691Z,76.36
2018-08-02T02:03:53.118Z,76.26
2018-08-02T02:04:33.537Z,76.65
2018-08-02T02:05:13.932Z,77.23
2018-08-02T02:05:54.294Z,77.33
2018-08-02T02:06:34.758Z,76.84
2018-08-02T02:07:15.048Z,76.36
2018-08-02T02:07:55.575Z,76.26
2018-08-02T02:08:35.858Z,76.36
2018-08-02T02:09:16.364Z,76.26
2018-08-02T02:09:56.725Z,76.45
2018-08-02T02:10:37.157Z,75.88
2018-08-02T02:11:17.557Z,76.17
2018-08-02T02:11:57.848Z,75.97
2018-08-02T02:12:38.216Z,75.88
2018-08-02T02:13:18.651Z,76.36
2018-08-02T02:13:59.095Z,76.17
2018-08-02T02:14:39.503Z,76.17
2018-08-02T02:15:20.038Z,75.88
2018-08-02T02:16:00.440Z,76.17
2018-08-02T02:16:40.840Z,76.36
2018-08-02T02:17:21.168Z,76.36
2018-08-02T02:18:01.657Z,76.26
2018-08-02T02:18:41.984Z,77.33
2018-08-02T02:19:22.424Z,76.9
2018-08-02T02:20:02.803Z,77.13
2018-08-02T02:20:43.256Z,76.71
2018-08-02T02:21:23.700Z,76.8
2018-08-02T02:22:04.071Z,77
2018-08-02T02:22:44.494Z,77.19
2018-08-02T02:23:24.924Z,77.38
2018-08-02T02:24:05.287Z,77.38
2018-08-02T02:24:45.757Z,77.38
2018-08-02T02:25:26.018Z,77.48
2018-08-02T02:26:06.539Z,77.67
2018-08-02T02:26:46.901Z,78.06
2018-08-02T02:27:27.294Z,78.15
2018-08-02T02:28:07.647Z,78.44
2018-08-02T02:28:48.143Z,78.25
2018-08-02T02:29:28.616Z,78.06
2018-08-02T02:30:08.961Z,78.25
2018-08-02T02:30:49.385Z,78.54
2018-08-02T02:31:29.772Z,78.44
2018-08-02T02:32:10.195Z,78.83
2018-08-02T02:32:50.668Z,78.25
2018-08-02T02:33:31.093Z,78.54
2018-08-02T02:34:11.488Z,78.54
2018-08-02T02:34:51.845Z,78.34
2018-08-02T02:35:32.261Z,78.54
2018-08-02T02:36:12.748Z,78.44
2018-08-02T02:36:53.118Z,78.54
2018-08-02T02:37:33.435Z,78.98
2018-08-02T02:38:13.838Z,78.92
2018-08-02T02:38:54.215Z,78.83
2018-08-02T02:39:34.631Z,78.79
2018-08-02T02:40:15.038Z,79.08
2018-08-02T02:40:55.487Z,79.11
2018-08-02T02:41:35.881Z,78.63
2018-08-02T02:42:16.307Z,78.92
2018-08-02T02:42:56.668Z,78.73
2018-08-02T02:43:37.068Z,79.02
2018-08-02T02:44:17.470Z,78.54
2018-08-02T02:44:57.805Z,78.25
2018-08-02T02:45:38.283Z,78.06
2018-08-02T02:46:18.714Z,77.76
2018-08-02T02:46:59.033Z,77.76
2018-08-02T02:47:39.518Z,78.06
2018-08-02T02:48:19.852Z,77.76
2018-08-02T02:49:00.246Z,77.96
2018-08-02T02:49:40.637Z,78.06
2018-08-02T02:50:20.961Z,77.86
2018-08-02T02:51:01.446Z,78.34
2018-08-02T02:51:41.808Z,78.44
2018-08-02T02:52:22.235Z,78.34
2018-08-02T02:53:02.608Z,78.11
2018-08-02T02:53:43.007Z,78.25
2018-08-02T02:54:23.410Z,78.34
2018-08-02T02:55:03.798Z,78.31
2018-08-02T02:55:44.216Z,79.02
2018-08-02T02:56:24.620Z,78.21
2018-08-02T02:57:05.001Z,78.63
2018-08-02T02:57:45.397Z,78.25
2018-08-02T02:58:25.802Z,78.15
2018-08-02T02:59:06.224Z,78.15
2018-08-02T02:59:46.688Z,77.67
2018-08-02T03:00:26.969Z,77.19
2018-08-02T03:01:07.488Z,77.38
2018-08-02T03:01:47.787Z,77.67
2018-08-02T03:02:28.228Z,77.48
2018-08-02T03:03:08.670Z,77.48
2018-08-02T03:03:48.968Z,76.71
2018-08-02T03:04:29.370Z,77.19
2018-08-02T03:05:09.819Z,77.76
2018-08-02T03:05:50.286Z,77.58
2018-08-02T03:06:30.657Z,77.83
2018-08-02T03:07:11.000Z,77.76
2018-08-02T03:07:51.427Z,77.73
2018-08-02T03:08:31.828Z,77.96
2018-08-02T03:09:12.248Z,78.06
2018-08-02T03:09:52.591Z,77.96
2018-08-02T03:10:33.021Z,78.11
2018-08-02T03:11:13.555Z,77.73
2018-08-02T03:11:53.956Z,77.53
2018-08-02T03:12:34.352Z,77.83
2018-08-02T03:13:14.837Z,77.25
2018-08-02T03:13:55.290Z,77.34
2018-08-02T03:14:35.687Z,77.15
2018-08-02T03:15:16.093Z,76.86
2018-08-02T03:17:30.556Z,76.96
2018-08-02T03:18:10.985Z,77.15
2018-08-02T03:18:51.405Z,77.15
2018-08-02T03:19:31.818Z,77.06
2018-08-02T03:20:12.243Z,76.86
2018-08-02T03:20:52.621Z,77.25
2018-08-02T03:21:33.034Z,77.44
2018-08-02T03:22:13.398Z,76.96
2018-08-02T03:24:10.825Z,77.4
2018-08-02T03:24:51.221Z,77.88
2018-08-02T03:25:31.633Z,78.27
2018-08-02T03:26:12.032Z,77.98
2018-08-02T03:28:29.599Z,78.08
2018-08-02T03:29:10.046Z,78.27
2018-08-02T03:29:50.462Z,78.08
2018-08-02T03:30:30.920Z,78.17
2018-08-02T03:31:11.327Z,77.98
2018-08-02T03:33:23.826Z,78.46
2018-08-02T03:34:04.265Z,78.56
2018-08-02T03:34:44.652Z,78.9
2018-08-02T03:35:25.036Z,78.75
2018-08-02T03:36:05.435Z,78.85
2018-08-02T03:38:23.023Z,78.71
2018-08-02T03:39:03.415Z,79.19
2018-08-02T03:39:43.839Z,79.03
2018-08-02T03:40:24.259Z,79.13
2018-08-02T03:41:04.717Z,78.85
2018-08-02T03:41:45.132Z,79.03
2018-08-02T03:42:25.511Z,78.75
2018-08-02T03:43:05.906Z,78.17
2018-08-02T03:43:46.297Z,77.88
2018-08-02T03:44:26.816Z,78.08
2018-08-02T03:45:07.399Z,77.78
2018-08-02T03:45:48.073Z,77.4
2018-08-02T03:46:28.220Z,77.5
2018-08-02T03:47:08.600Z,77.11
2018-08-02T03:47:48.981Z,76.73
2018-08-02T03:48:29.387Z,76.73
2018-08-02T03:49:09.793Z,76.15
2018-08-02T03:49:50.174Z,76.44
2018-08-02T03:50:30.602Z,76.15
2018-08-02T03:51:10.983Z,76.34
2018-08-02T03:51:51.415Z,76.73
2018-08-02T03:52:31.787Z,77.11
2018-08-02T03:54:49.449Z,76.82
2018-08-02T03:55:29.812Z,77.11
2018-08-02T03:56:10.222Z,77.01
2018-08-02T03:56:50.629Z,77.01
2018-08-02T03:57:30.990Z,77.11
2018-08-02T03:58:11.423Z,77.17
2018-08-02T03:58:51.867Z,77.11
2018-08-02T03:59:32.207Z,77.4
2018-08-02T04:00:12.594Z,77.4
2018-08-02T04:00:53.015Z,77.69
2018-08-02T04:01:33.401Z,77.75
2018-08-02T04:02:13.833Z,77.56
2018-08-02T04:02:54.249Z,77.88
2018-08-02T04:03:34.627Z,77.98
2018-08-02T04:04:15.049Z,77.88
2018-08-02T04:04:55.428Z,78.27
2018-08-02T04:05:35.826Z,78.27
2018-08-02T04:07:48.457Z,78.27
2018-08-02T04:08:28.776Z,78.46
2018-08-02T04:09:09.197Z,78.46
2018-08-02T04:11:06.650Z,78.46
2018-08-02T04:11:47.021Z,78.17
2018-08-02T04:12:27.446Z,78.08
2018-08-02T04:13:07.886Z,77.88
2018-08-02T04:13:48.281Z,77.78
2018-08-02T04:14:28.718Z,77.98
2018-08-02T04:15:09.148Z,77.98
2018-08-02T04:15:49.517Z,77.88
2018-08-02T04:16:29.922Z,77.88
2018-08-02T04:18:43.590Z,77.78
2018-08-02T04:19:24.024Z,77.69
2018-08-02T04:20:04.413Z,77.78
2018-08-02T04:20:44.845Z,77.5
2018-08-02T04:21:25.270Z,77.59
2018-08-02T04:22:05.691Z,78.08
2018-08-02T04:22:46.121Z,77.88
2018-08-02T04:23:26.532Z,77.59
2018-08-02T04:24:06.932Z,77.88
2018-08-02T04:24:47.340Z,77.21
2018-08-02T04:25:27.711Z,77.69
2018-08-02T04:26:08.160Z,76.82
2018-08-02T04:26:48.524Z,77.11
2018-08-02T04:27:28.947Z,76.28
2018-08-02T04:28:09.381Z,76.38
2018-08-02T05:06:17.618Z,67.94
2018-08-02T05:06:58.005Z,67.94
2018-08-02T05:11:03.207Z,66.24
2018-08-02T05:11:59.854Z,65.66
2018-08-02T05:12:52.612Z,65.3
2018-08-02T05:13:47.007Z,64.53
2018-08-02T05:15:43.063Z,63.4
2018-08-02T05:16:23.481Z,63.21
2018-08-02T05:17:03.884Z,62.63
2018-08-02T05:17:44.324Z,62.56
2018-08-02T05:18:24.790Z,62.18
2018-08-02T05:19:12.971Z,61.43
2018-08-02T05:21:17.426Z,60.37
2018-08-02T05:22:09.511Z,59.69
2018-08-02T05:23:02.123Z,59.82
2018-08-02T05:23:49.940Z,58.95
2018-08-02T05:24:30.208Z,58.27
2018-08-02T05:25:10.577Z,58.39
2018-08-02T05:25:51.033Z,57.62
2018-08-02T05:26:31.395Z,57.33
2018-08-02T05:27:11.797Z,57.65
2018-08-02T05:27:52.197Z,56.97
2018-08-02T05:28:32.710Z,56.29
2018-08-02T05:29:13.054Z,56.1
2018-08-02T05:29:53.413Z,55.54
2018-08-02T05:30:33.783Z,55.44
2018-08-02T05:31:14.284Z,55.06
2018-08-02T05:31:54.656Z,55.35
2018-08-02T05:32:35.049Z,55.26
2018-08-02T05:33:15.491Z,55.38
2018-08-02T05:33:56.025Z,54.6
2018-08-02T05:34:36.347Z,54.6
2018-08-02T05:35:16.812Z,54.02
2018-08-02T05:35:57.367Z,53.73
2018-08-02T05:36:37.949Z,54.05
2018-08-02T05:37:18.283Z,53.85
2018-08-02T05:37:58.722Z,54.21
2018-08-02T05:38:39.171Z,54.21
2018-08-02T05:39:19.659Z,54.5
2018-08-02T05:40:00.515Z,54.7
2018-08-02T05:40:40.885Z,55.08
2018-08-02T05:41:21.402Z,54.6
2018-08-02T05:42:01.769Z,54.6
2018-08-02T05:42:42.081Z,54.7
2018-08-02T05:43:22.495Z,54.11
2018-08-02T05:44:03.333Z,54.14
2018-08-02T05:44:44.612Z,53.85
2018-08-02T05:45:25.006Z,53.85
2018-08-02T05:46:05.483Z,53.85
2018-08-02T05:46:46.244Z,53.66
2018-08-02T05:47:26.592Z,53.47
2018-08-02T05:48:06.915Z,53.27
2018-08-02T05:48:47.454Z,52.91
2018-08-02T05:49:27.796Z,52.23
2018-08-02T05:50:08.171Z,51.87
2018-08-02T05:50:48.785Z,52.06
2018-08-02T05:51:29.821Z,51.67
2018-08-02T05:52:10.260Z,51.21
2018-08-02T05:52:50.676Z,51.11
2018-08-02T05:53:31.062Z,51.01
2018-08-02T05:54:11.503Z,50.53
2018-08-02T05:54:51.882Z,50.53
2018-08-02T05:55:32.337Z,50.63
2018-08-02T05:56:12.767Z,50.43
2018-08-02T05:56:53.123Z,50.82
2018-08-02T05:57:34.312Z,50.56
2018-08-02T05:59:23.392Z,49.51
2018-08-02T06:00:03.781Z,48.83
2018-08-02T06:00:44.182Z,49.02
2018-08-02T06:01:24.642Z,48.83
2018-08-02T06:02:05.030Z,48.54
2018-08-02T06:02:45.419Z,48.54
2018-08-02T06:03:26.189Z,48.63
2018-08-02T06:04:06.644Z,48.83
2018-08-02T06:04:47.043Z,48.73
2018-08-02T06:05:27.763Z,48.27
2018-08-02T06:06:08.129Z,48.07
2018-08-02T06:06:49.232Z,47.9
2018-08-02T06:07:29.073Z,47.42
2018-08-02T06:08:09.618Z,47.32
2018-08-02T06:08:49.998Z,46.54
2018-08-02T06:09:30.392Z,46.47
2018-08-02T06:10:10.778Z,45.88
2018-08-02T06:10:51.159Z,45.81
2018-08-02T06:11:31.575Z,45.71
2018-08-02T06:12:12.188Z,44.73
2018-08-02T06:12:52.621Z,44.93
2018-08-02T06:13:33.077Z,44.83
2018-08-02T06:14:13.475Z,44.76
2018-08-02T06:16:31.113Z,43.99
2018-08-02T06:17:11.453Z,43.41
2018-08-02T06:17:51.839Z,43.71
2018-08-02T06:18:32.288Z,43.41
2018-08-02T06:19:12.686Z,43.43
2018-08-02T06:19:53.169Z,43.33
2018-08-02T06:20:33.630Z,42.75
2018-08-02T06:21:13.963Z,42.48
2018-08-02T06:23:01.291Z,41.99
2018-08-02T06:23:41.699Z,41.21
2018-08-02T06:24:22.108Z,41.8
2018-08-02T06:25:02.536Z,41.89
2018-08-02T06:25:43.009Z,41.99
2018-08-02T06:26:23.410Z,41.5
2018-08-02T06:27:03.788Z,41.31
2018-08-02T06:27:44.208Z,41.21
2018-08-02T06:28:24.712Z,40.94
2018-08-02T06:29:05.075Z,40.16
2018-08-02T06:29:45.601Z,40.25
2018-08-02T06:30:26.172Z,40.16
2018-08-02T06:31:06.445Z,40.25
2018-08-02T06:31:46.845Z,40.45
2018-08-02T06:32:27.261Z,40.25
2018-08-02T06:33:07.747Z,40.27
2018-08-02T06:33:48.179Z,40.27
2018-08-02T06:34:28.547Z,39.88
2018-08-02T06:36:15.863Z,39.29
2018-08-02T06:36:56.310Z,39.49
2018-08-02T06:39:18.228Z,38.81
2018-08-02T06:40:11.390Z,39.02
2018-08-02T06:41:03.758Z,38.43
2018-08-02T06:41:55.263Z,38.53
2018-08-02T06:42:47.620Z,38.06
2018-08-02T06:43:40.008Z,38.26
2018-08-02T06:44:27.298Z,37.77
2018-08-02T06:45:07.850Z,38.06
2018-08-02T06:45:48.258Z,37.96
2018-08-02T06:46:28.749Z,37.87
2018-08-02T06:47:09.286Z,37.96
2018-08-02T06:47:49.705Z,37.69
2018-08-02T06:48:30.208Z,37.79
2018-08-02T06:49:10.764Z,37.79
2018-08-02T06:49:51.178Z,37.79
2018-08-02T06:50:32.583Z,37.29
2018-08-02T06:51:12.214Z,36.72
2018-08-02T06:51:55.096Z,36.43
2018-08-02T06:52:35.783Z,36.33
2018-08-02T06:53:16.427Z,36.24
2018-08-02T06:53:56.709Z,36.24
2018-08-02T06:54:37.185Z,35.96
2018-08-02T06:55:17.661Z,35.66
2018-08-02T06:55:58.003Z,35.66
2018-08-02T06:56:38.560Z,35.66
2018-08-02T06:57:18.916Z,35.57
2018-08-02T06:57:59.318Z,35.17
2018-08-02T06:58:39.958Z,35.37
2018-08-02T06:59:20.251Z,35.57
2018-08-02T07:00:00.607Z,35.76
2018-08-02T07:00:41.626Z,35.17
2018-08-02T07:01:22.071Z,35.76
2018-08-02T07:02:02.293Z,35.57
2018-08-02T07:02:42.843Z,35.17
2018-08-02T07:03:23.661Z,35.1
2018-08-02T07:04:04.120Z,35
2018-08-02T07:04:44.693Z,35.1
2018-08-02T07:05:25.241Z,34.52
2018-08-02T07:06:06.064Z,34.9
2018-08-02T07:06:56.813Z,34.9
2018-08-02T07:07:38.175Z,34.7
2018-08-02T07:08:20.651Z,34.62
2018-08-02T07:09:01.136Z,34.52
2018-08-02T07:09:41.658Z,34.62
2018-08-02T07:10:22.134Z,34.52
2018-08-02T07:11:03.257Z,33.64
2018-08-02T07:11:43.979Z,33.54
2018-08-02T07:14:50.639Z,32.86
2018-08-02T07:15:31.076Z,33.44
2018-08-02T07:16:11.716Z,33.15
2018-08-02T07:16:52.180Z,32.66
2018-08-02T07:17:32.630Z,33.15
2018-08-02T07:18:13.149Z,33.44
2018-08-02T07:18:53.500Z,32.86
2018-08-02T07:19:33.919Z,32.56
2018-08-02T07:20:14.311Z,32.38
2018-08-02T07:20:54.780Z,32.38
2018-08-02T07:21:35.161Z,31.99
2018-08-02T07:22:15.575Z,31.79
2018-08-02T07:22:56.007Z,31.79
2018-08-02T07:23:36.417Z,31.81
2018-08-02T07:24:16.994Z,31.81
2018-08-02T07:24:57.497Z,31.71
2018-08-02T07:25:37.978Z,31.79
2018-08-02T07:26:18.393Z,31.81
2018-08-02T07:26:58.863Z,31.71
2018-08-02T07:27:39.212Z,31.9
2018-08-02T07:28:19.630Z,31.71
2018-08-02T07:29:00.118Z,31.32
2018-08-02T07:29:42.680Z,31.32
2018-08-02T07:30:23.090Z,31.04
2018-08-02T07:31:03.484Z,30.94
2018-08-02T07:31:44.149Z,30.74
2018-08-02T07:32:24.575Z,30.84
2018-08-02T07:33:04.959Z,30.85
2018-08-02T07:33:45.607Z,30.84
2018-08-02T07:34:26.083Z,30.84
2018-08-02T07:35:06.492Z,30.76
2018-08-02T07:35:46.926Z,30.27
2018-08-02T07:36:27.326Z,30.36
2018-08-02T07:37:07.736Z,30.36
2018-08-02T07:37:48.201Z,30.46
2018-08-02T07:38:28.654Z,30.36
2018-08-02T07:39:09.080Z,29.99
2018-08-02T07:39:49.519Z,29.99
2018-08-02T07:40:29.940Z,29.99
2018-08-02T07:41:10.453Z,29.89
2018-08-02T07:41:51.079Z,29.8
2018-08-02T07:42:31.476Z,29.41
2018-08-02T07:43:12.054Z,29.41
2018-08-02T07:43:52.814Z,29.31
2018-08-02T07:44:33.206Z,29.21
2018-08-02T07:45:13.652Z,29.31
2018-08-02T07:45:54.103Z,29.41
2018-08-02T07:46:34.532Z,29.51
2018-08-02T07:47:15.054Z,29.51
2018-08-02T07:47:55.492Z,29.31
2018-08-02T07:52:48.093Z,28.55
2018-08-02T07:53:28.601Z,28.37
2018-08-02T07:54:09.064Z,28.08
2018-08-02T07:54:49.493Z,27.97
2018-08-02T07:55:29.967Z,27.89
2018-08-02T07:56:11.807Z,27.79
2018-08-02T07:56:52.354Z,27.79
2018-08-02T07:57:32.818Z,28.09
2018-08-02T07:58:13.321Z,27.89
2018-08-02T07:58:53.800Z,27.4
2018-08-02T07:59:34.376Z,27.51
2018-08-02T08:00:15.122Z,26.82
2018-08-02T08:00:55.932Z,26.72
2018-08-02T08:01:37.756Z,26.42
2018-08-02T08:02:18.430Z,26.42
2018-08-02T08:02:59.237Z,26.53
2018-08-02T08:03:39.837Z,26.23
2018-08-02T08:04:20.539Z,26.72
2018-08-02T08:05:01.081Z,26.82
2018-08-02T08:05:41.794Z,26.53
2018-08-02T08:06:22.417Z,26.62
2018-08-02T08:07:04.000Z,26.42
2018-08-02T08:07:44.454Z,26.62
2018-08-02T08:08:24.891Z,26.53
2018-08-02T08:09:05.280Z,26.23
2018-08-02T08:09:45.821Z,26.23
2018-08-02T08:11:44.894Z,25.95
2018-08-02T08:12:26.473Z,25.65
2018-08-02T08:13:07.347Z,25.55
2018-08-02T08:16:44.797Z,25.84
2018-08-02T08:17:38.182Z,25.63
2018-08-02T08:18:35.585Z,25.74
2018-08-02T08:19:30.985Z,25.65
2018-08-02T08:20:26.883Z,25.45
2018-08-02T08:21:27.017Z,24.96
2018-08-02T08:22:27.314Z,24.97
2018-08-02T08:24:17.018Z,25.07
2018-08-02T08:24:57.520Z,24.97
2018-08-02T08:25:38.036Z,24.87
2018-08-02T08:26:18.648Z,24.88
2018-08-02T08:26:59.041Z,24.19
2018-08-02T08:27:39.446Z,24.29
2018-08-02T08:28:19.894Z,23.99
2018-08-02T08:29:00.306Z,23.9
2018-08-02T08:29:41.604Z,24.1
2018-08-02T08:30:22.049Z,23.41
2018-08-02T08:31:03.209Z,23.52
2018-08-02T08:31:43.201Z,23.62
2018-08-02T08:32:23.689Z,23.43
2018-08-02T08:33:04.043Z,23.52
2018-08-02T08:33:44.559Z,23.72
2018-08-02T08:34:41.526Z,23.33
2018-08-02T08:35:22.059Z,23.22
2018-08-02T08:36:02.626Z,23.22
2018-08-02T08:36:43.988Z,24.01
2018-08-02T08:37:24.731Z,24.11
2018-08-02T08:38:04.933Z,24.32
2018-08-02T08:38:45.390Z,23.72
2018-08-02T08:39:25.791Z,23.62
2018-08-02T08:40:07.244Z,23.62
2018-08-02T08:40:47.019Z,23.73
2018-08-02T08:41:27.486Z,23.73
2018-08-02T08:42:08.593Z,23.54
2018-08-02T08:42:49.682Z,23.63
2018-08-02T08:43:30.216Z,23.54
2018-08-02T08:44:10.531Z,23.44
2018-08-02T08:44:51.462Z,23.44
2018-08-02T08:45:31.956Z,23.63
2018-08-02T08:46:12.400Z,23.55
2018-08-02T08:46:53.793Z,23.44
2018-08-02T08:47:33.554Z,23.44
2018-08-02T08:48:13.977Z,23.54
2018-08-02T08:48:54.417Z,23.35
2018-08-02T08:49:35.036Z,23.25
2018-08-02T08:50:16.861Z,23.35
2018-08-02T08:50:58.969Z,23.35
2018-08-02T08:51:40.014Z,23.73
2018-08-02T08:52:21.688Z,23.44
2018-08-02T08:53:02.313Z,23.44
2018-08-02T08:53:42.882Z,23.44
2018-08-02T08:54:23.663Z,23.36
2018-08-02T08:55:04.271Z,23.06
2018-08-02T08:55:44.970Z,23.06
2018-08-02T08:56:26.151Z,23.16
2018-08-02T08:57:05.951Z,22.86
2018-08-02T08:57:46.402Z,22.67
2018-08-02T08:58:28.034Z,22.47
2018-08-02T08:59:08.439Z,23.06
2018-08-02T08:59:48.750Z,22.56
2018-08-02T09:00:29.262Z,22.47
2018-08-02T09:01:09.715Z,22.96
2018-08-02T09:01:50.341Z,22.47
2018-08-02T09:02:30.797Z,22.86
2018-08-02T09:03:11.285Z,22.96
2018-08-02T09:03:51.809Z,23.07
2018-08-02T09:04:33.045Z,22.67
2018-08-02T09:05:13.426Z,22.67
2018-08-02T09:05:54.132Z,22.58
2018-08-02T09:06:34.463Z,22.38
2018-08-02T09:07:14.987Z,22.58
2018-08-02T09:07:55.400Z,22.38
2018-08-02T09:08:35.917Z,22.08
2018-08-02T09:09:16.483Z,22.38
2018-08-02T09:09:57.204Z,22.38
2018-08-02T09:10:37.707Z,22.38
2018-08-02T09:11:18.260Z,22.37
2018-08-02T09:11:58.808Z,22.56
2018-08-02T09:12:39.106Z,22.67
2018-08-02T09:13:19.510Z,22.67
2018-08-02T09:13:59.965Z,22.48
2018-08-02T09:14:41.265Z,22.48
2018-08-02T09:15:22.436Z,22.38
2018-08-02T09:16:03.039Z,22.67
2018-08-02T09:16:43.647Z,22.47
2018-08-02T09:17:24.128Z,22.56
2018-08-02T09:18:05.379Z,22.67
2018-08-02T09:18:46.212Z,22.58
2018-08-02T09:19:26.703Z,22.28
2018-08-02T09:20:07.513Z,22.09
2018-08-02T09:20:48.072Z,21.81
2018-08-02T09:21:28.794Z,21.81
2018-08-02T09:22:09.993Z,21.61
2018-08-02T09:22:50.470Z,21.81
2018-08-02T09:23:30.862Z,21.81
2018-08-02T09:24:11.247Z,21.61
2018-08-02T09:24:51.914Z,21.8
2018-08-02T09:25:33.059Z,21.98
2018-08-02T09:26:13.646Z,22.09
2018-08-02T09:26:54.159Z,22.08
2018-08-02T09:27:34.583Z,22.38
2018-08-02T09:31:35.179Z,22
2018-08-02T09:32:15.661Z,22.09
2018-08-02T09:32:56.156Z,21.7
2018-08-02T09:33:37.171Z,22
2018-08-02T09:34:17.431Z,21.41
2018-08-02T09:34:57.957Z,21.5
2018-08-02T09:35:38.313Z,21.81
2018-08-02T09:36:18.733Z,21.81
2018-08-02T09:36:59.192Z,21.51
2018-08-02T09:37:39.771Z,21.41
2018-08-02T09:38:20.132Z,21.52
2018-08-02T09:39:00.778Z,21.22
2018-08-02T09:39:42.219Z,21.22
2018-08-02T09:40:24.551Z,21.22
2018-08-02T09:45:26.996Z,21.03
2018-08-02T09:48:07.743Z,20.64
2018-08-02T09:48:48.077Z,20.44
2018-08-02T09:49:28.540Z,20.54
2018-08-02T09:50:09.303Z,20.44
2018-08-02T09:53:09.553Z,20.34
2018-08-02T09:53:50.182Z,20.34
2018-08-02T09:54:30.587Z,20.45
2018-08-02T09:55:11.622Z,20.73
2018-08-02T09:55:52.096Z,20.54
2018-08-02T09:56:32.961Z,20.35
2018-08-02T09:57:13.384Z,20.34
2018-08-02T09:57:54.343Z,20.54
2018-08-02T09:58:34.820Z,20.34
2018-08-02T09:59:15.923Z,20.64
2018-08-02T09:59:56.912Z,20.83
2018-08-02T10:00:37.046Z,20.92
2018-08-02T10:01:17.520Z,20.53
2018-08-02T10:01:58.120Z,20.73
2018-08-02T10:02:39.497Z,20.73
2018-08-02T10:03:22.529Z,20.23
2018-08-02T10:04:03.243Z,20.43
2018-08-02T10:04:45.903Z,20.64
2018-08-02T10:05:25.557Z,20.34
2018-08-02T10:06:06.672Z,20.14
2018-08-02T10:06:47.070Z,19.85
2018-08-02T10:07:27.986Z,19.85
2018-08-02T10:08:20.621Z,19.56
2018-08-02T10:09:02.554Z,19.67
2018-08-02T10:09:45.728Z,19.76
2018-08-02T10:10:27.207Z,19.17
2018-08-02T10:11:09.844Z,19.27
2018-08-02T10:11:50.601Z,18.97
2018-08-02T10:12:32.292Z,19.07
2018-08-02T10:13:12.734Z,18.88
2018-08-02T10:13:54.067Z,19.18
2018-08-02T10:14:34.555Z,19.08
2018-08-02T10:15:14.931Z,18.78
2018-08-02T10:15:55.318Z,18.98